Gleisdorf, Austria
Current Conditions -  °F | °C
As of 5:50 PM on Sunday 23 Nov 2014 (Local Time) from LOWG Reporting Station
Haze Haze  
Wind Chill: 38°   Ceiling: 1200
Heat Index: 41°   Visibility: 3mi
Dew Point: 39°   Wind: 5mph
Humidity: 93%   Direction: 170°S
Pressure: 30.36"   Gusts: NA
Location:  47.11°N, 15.71°E
Report Text: LOWG 231550Z 17004KT 5000 BR OVC012 05/04 Q1028 BECMG 4000
Loading
Personal Weather Stations






























Interactive Weather Map New forecast layout! Learn more

10-Day Weather Forecast

Advertisements
Track Severe Weather on mobile